Time;durP1;ratioP1;P1;durP2;ratioP2;P2;SDS_P1;SDS_P2;PMS_P1;PMS_P2;Temp;Humidity;BMP_temperature;BMP_pressure;BME280_temperature;BME280_humidity;BME280_pressure;Samples;Min_cycle;Max_cycle;Signal;HPM_P1;HPM_P2
2023/07/18 00:00:25;;;;;;;3.45;1.02;;;;;;;;;;4929783;29;20050;-67
2023/07/18 00:02:52;;;;;;;3.75;0.88;;;;;;;;;;4933243;29;20070;-67
2023/07/18 00:05:18;;;;;;;1.90;0.77;;;;;;;;;;4926836;29;20071;-67
2023/07/18 00:07:44;;;;;;;1.67;1.02;;;;;;;;;;4929119;29;20540;-67
2023/07/18 00:10:10;;;;;;;1.17;1.08;;;;;;;;;;4934505;29;20078;-67
2023/07/18 00:12:37;;;;;;;2.67;1.00;;;;;;;;;;4934308;29;20028;-67
2023/07/18 00:15:06;;;;;;;3.50;1.00;;;;;;;;;;4923276;29;20015;-67
2023/07/18 00:17:33;;;;;;;1.92;0.95;;;;;;;;;;4928093;29;20023;-67
2023/07/18 00:19:59;;;;;;;3.20;1.15;;;;;;;;;;4933885;29;20023;-67
2023/07/18 00:22:25;;;;;;;3.35;1.00;;;;;;;;;;4929919;29;20036;-67
2023/07/18 00:24:51;;;;;;;0.88;0.85;;;;;;;;;;4932687;29;20102;-67
2023/07/18 00:27:17;;;;;;;1.10;1.00;;;;;;;;;;4934183;29;20030;-67
2023/07/18 00:29:43;;;;;;;2.40;1.10;;;;;;;;;;4934295;29;20447;-67
2023/07/18 00:32:10;;;;;;;3.92;1.15;;;;;;;;;;4931586;29;20019;-67
2023/07/18 00:34:36;;;;;;;1.42;0.90;;;;;;;;;;4933101;29;20028;-67
2023/07/18 00:37:02;;;;;;;2.35;1.10;;;;;;;;;;4932824;29;20399;-67
2023/07/18 00:39:28;;;;;;;2.25;1.00;;;;;;;;;;4926700;29;20028;-67
2023/07/18 00:41:54;;;;;;;1.88;0.90;;;;;;;;;;4923983;29;20027;-67
2023/07/18 00:44:20;;;;;;;3.22;2.17;;;;;;;;;;4933751;29;20024;-67
2023/07/18 00:46:46;;;;;;;2.55;1.30;;;;;;;;;;4934811;29;20031;-67
2023/07/18 00:49:12;;;;;;;1.60;0.98;;;;;;;;;;4933470;29;20393;-67
2023/07/18 00:51:39;;;;;;;2.15;0.90;;;;;;;;;;4926569;29;20031;-67
2023/07/18 00:54:05;;;;;;;1.00;0.80;;;;;;;;;;4931765;29;20064;-68
2023/07/18 00:56:31;;;;;;;2.13;0.57;;;;;;;;;;4928154;29;20095;-67
2023/07/18 00:58:57;;;;;;;2.33;1.00;;;;;;;;;;4933055;29;20028;-67
2023/07/18 01:01:23;;;;;;;1.55;0.98;;;;;;;;;;4932599;29;20024;-67
2023/07/18 01:03:49;;;;;;;2.05;1.05;;;;;;;;;;4932054;29;20020;-67
2023/07/18 01:06:15;;;;;;;3.65;1.00;;;;;;;;;;4932664;29;20023;-67
2023/07/18 01:08:41;;;;;;;2.40;0.85;;;;;;;;;;4928627;29;20039;-67
2023/07/18 01:11:07;;;;;;;2.25;1.25;;;;;;;;;;4933718;29;20050;-67
2023/07/18 01:13:34;;;;;;;1.15;0.88;;;;;;;;;;4929248;29;20535;-67
2023/07/18 01:16:00;;;;;;;1.88;0.80;;;;;;;;;;4918946;29;20027;-67
2023/07/18 01:18:26;;;;;;;3.63;0.80;;;;;;;;;;4930218;29;20479;-67
2023/07/18 01:20:54;;;;;;;6.93;1.00;;;;;;;;;;4933593;29;20036;-67
2023/07/18 01:23:21;;;;;;;4.53;0.95;;;;;;;;;;4925786;29;20192;-67
2023/07/18 01:25:47;;;;;;;2.88;0.85;;;;;;;;;;4933630;29;20032;-67
2023/07/18 01:28:13;;;;;;;2.40;0.93;;;;;;;;;;4934952;29;20059;-67
2023/07/18 01:30:39;;;;;;;3.03;0.80;;;;;;;;;;4933740;29;20030;-67
2023/07/18 01:33:06;;;;;;;2.50;1.00;;;;;;;;;;4936059;29;20020;-67
2023/07/18 01:35:32;;;;;;;2.42;0.90;;;;;;;;;;4937044;29;20030;-67
2023/07/18 01:37:59;;;;;;;3.22;1.20;;;;;;;;;;4936992;29;20069;-67
2023/07/18 01:40:25;;;;;;;1.50;0.90;;;;;;;;;;4937385;29;20027;-67
2023/07/18 01:42:55;;;;;;;4.68;1.20;;;;;;;;;;4937110;29;20023;-67
2023/07/18 01:45:21;;;;;;;6.57;1.00;;;;;;;;;;4928810;29;20028;-67
2023/07/18 01:47:49;;;;;;;2.67;1.40;;;;;;;;;;4920064;29;20415;-67
2023/07/18 01:50:15;;;;;;;1.83;1.00;;;;;;;;;;4932348;29;20023;-68
2023/07/18 01:52:41;;;;;;;2.60;1.17;;;;;;;;;;4936905;29;20020;-67
2023/07/18 01:55:09;;;;;;;3.38;1.13;;;;;;;;;;4934193;29;20051;-67
2023/07/18 01:57:38;;;;;;;2.45;1.10;;;;;;;;;;4936915;29;20074;-67
2023/07/18 02:00:11;;;;;;;2.17;1.15;;;;;;;;;;4937041;29;20087;-67
2023/07/18 02:02:38;;;;;;;2.92;1.13;;;;;;;;;;4922919;29;20031;-67
2023/07/18 02:05:04;;;;;;;4.10;1.10;;;;;;;;;;4936816;29;20031;-67
2023/07/18 02:07:30;;;;;;;2.45;1.20;;;;;;;;;;4933941;29;20551;-67
2023/07/18 02:09:56;;;;;;;2.90;1.00;;;;;;;;;;4936038;29;20027;-67
2023/07/18 02:12:22;;;;;;;3.45;1.35;;;;;;;;;;4936937;29;20024;-67
2023/07/18 02:14:48;;;;;;;1.85;1.35;;;;;;;;;;4936755;29;20027;-67
2023/07/18 02:17:14;;;;;;;4.05;1.25;;;;;;;;;;4936430;29;20052;-68
2023/07/18 02:19:40;;;;;;;1.17;0.98;;;;;;;;;;4930489;29;20373;-67
2023/07/18 02:22:06;;;;;;;4.93;1.23;;;;;;;;;;4936743;29;20155;-67
2023/07/18 02:24:32;;;;;;;1.40;1.02;;;;;;;;;;4936575;29;20070;-67
2023/07/18 02:26:59;;;;;;;1.35;0.93;;;;;;;;;;4936155;29;20098;-67
2023/07/18 02:29:25;;;;;;;3.58;1.35;;;;;;;;;;4936433;29;20035;-67
2023/07/18 02:31:51;;;;;;;3.88;0.88;;;;;;;;;;4936249;29;20093;-67
2023/07/18 02:34:17;;;;;;;2.20;1.05;;;;;;;;;;4936112;29;20403;-68
2023/07/18 02:36:43;;;;;;;2.83;1.40;;;;;;;;;;4936051;29;20098;-69
2023/07/18 02:39:10;;;;;;;1.77;0.80;;;;;;;;;;4935400;29;20024;-68
2023/07/18 02:41:36;;;;;;;2.00;0.90;;;;;;;;;;4936258;29;20083;-68
2023/07/18 02:44:03;;;;;;;7.63;1.52;;;;;;;;;;4936358;29;20086;-68
2023/07/18 02:46:29;;;;;;;1.42;0.82;;;;;;;;;;4934449;29;20027;-68
2023/07/18 02:48:55;;;;;;;2.25;1.20;;;;;;;;;;4936306;29;20028;-67
2023/07/18 02:51:21;;;;;;;1.60;0.98;;;;;;;;;;4936001;29;20031;-68
2023/07/18 02:53:49;;;;;;;1.67;1.00;;;;;;;;;;4930865;29;20029;-68
2023/07/18 02:56:15;;;;;;;2.58;1.50;;;;;;;;;;4935957;29;20019;-68
2023/07/18 02:58:41;;;;;;;1.13;0.90;;;;;;;;;;4935639;29;20086;-67
2023/07/18 03:01:08;;;;;;;2.38;1.15;;;;;;;;;;4935745;29;20026;-68
2023/07/18 03:03:38;;;;;;;2.80;1.20;;;;;;;;;;4935803;29;20024;-68
2023/07/18 03:06:04;;;;;;;1.52;0.70;;;;;;;;;;4935843;29;20432;-68
2023/07/18 03:08:32;;;;;;;1.77;1.42;;;;;;;;;;4931545;29;20042;-68
2023/07/18 03:10:58;;;;;;;2.35;1.15;;;;;;;;;;4935704;29;20020;-68
2023/07/18 03:13:26;;;;;;;1.33;1.08;;;;;;;;;;4935616;29;20043;-68
2023/07/18 03:15:52;;;;;;;1.63;0.93;;;;;;;;;;4935676;29;20099;-68
2023/07/18 03:18:18;;;;;;;2.47;0.77;;;;;;;;;;4935723;29;20063;-68
2023/07/18 03:20:44;;;;;;;4.40;1.02;;;;;;;;;;4935433;29;20040;-68
2023/07/18 03:23:10;;;;;;;2.10;1.15;;;;;;;;;;4935571;29;20023;-68
2023/07/18 03:25:36;;;;;;;1.95;0.70;;;;;;;;;;4935459;29;20395;-68
2023/07/18 03:28:02;;;;;;;1.67;1.17;;;;;;;;;;4928602;29;20391;-68
2023/07/18 03:30:28;;;;;;;3.42;1.13;;;;;;;;;;4926011;29;20027;-68
2023/07/18 03:32:55;;;;;;;5.22;1.30;;;;;;;;;;4934158;29;20580;-68
2023/07/18 03:35:21;;;;;;;2.40;1.08;;;;;;;;;;4935233;29;20031;-69
2023/07/18 03:37:47;;;;;;;1.17;0.90;;;;;;;;;;4928390;29;20641;-69
2023/07/18 03:40:15;;;;;;;2.60;1.00;;;;;;;;;;4935169;29;20103;-68
2023/07/18 03:42:42;;;;;;;5.43;1.50;;;;;;;;;;4933057;29;20616;-68
2023/07/18 03:45:10;;;;;;;5.25;1.40;;;;;;;;;;4933274;29;20028;-68
2023/07/18 03:47:36;;;;;;;4.07;1.42;;;;;;;;;;4912441;29;20024;-68
2023/07/18 03:50:02;;;;;;;2.63;1.38;;;;;;;;;;4910774;29;20072;-68
2023/07/18 03:52:28;;;;;;;3.83;1.08;;;;;;;;;;4910145;29;20033;-68
2023/07/18 03:54:54;;;;;;;4.60;1.23;;;;;;;;;;4907973;29;20035;-68
2023/07/18 03:57:20;;;;;;;1.38;1.10;;;;;;;;;;4914989;29;20032;-69
2023/07/18 03:59:46;;;;;;;3.00;1.33;;;;;;;;;;4914371;29;20060;-68
2023/07/18 04:02:17;;;;;;;1.75;1.08;;;;;;;;;;4915579;29;20082;-68
2023/07/18 04:04:43;;;;;;;3.83;1.60;;;;;;;;;;4915563;29;20039;-68
2023/07/18 04:07:09;;;;;;;1.60;1.08;;;;;;;;;;4915303;29;20024;-69
2023/07/18 04:09:35;;;;;;;4.63;1.30;;;;;;;;;;4929377;29;20405;-69
2023/07/18 04:12:01;;;;;;;2.10;1.42;;;;;;;;;;4934489;29;20246;-68
2023/07/18 04:14:27;;;;;;;2.67;1.30;;;;;;;;;;4919852;29;20048;-69
2023/07/18 04:16:53;;;;;;;2.42;1.20;;;;;;;;;;4931813;29;20149;-68
2023/07/18 04:19:19;;;;;;;2.55;0.90;;;;;;;;;;4926902;29;20535;-68
2023/07/18 04:21:45;;;;;;;2.75;1.10;;;;;;;;;;4934411;29;20028;-68
2023/07/18 04:24:12;;;;;;;2.88;1.00;;;;;;;;;;4928608;29;20023;-68
2023/07/18 04:26:38;;;;;;;4.65;1.20;;;;;;;;;;4933369;29;20036;-68
2023/07/18 04:29:07;;;;;;;1.85;0.90;;;;;;;;;;4933757;29;20030;-68
2023/07/18 04:31:33;;;;;;;2.30;0.88;;;;;;;;;;4932337;29;20027;-69
2023/07/18 04:33:59;;;;;;;3.03;0.70;;;;;;;;;;4932903;29;20063;-68
2023/07/18 04:36:25;;;;;;;4.05;1.10;;;;;;;;;;4933195;29;20028;-68
2023/07/18 04:38:51;;;;;;;5.00;1.00;;;;;;;;;;4933575;29;20087;-68
2023/07/18 04:41:17;;;;;;;3.00;0.80;;;;;;;;;;4927512;29;20484;-69
2023/07/18 04:43:43;;;;;;;5.15;1.63;;;;;;;;;;4914795;29;20032;-69
2023/07/18 04:46:10;;;;;;;3.88;1.00;;;;;;;;;;4928646;29;20024;-68
2023/07/18 04:48:36;;;;;;;4.88;1.40;;;;;;;;;;4933795;29;20499;-69
2023/07/18 04:51:03;;;;;;;3.75;1.80;;;;;;;;;;4924242;29;20109;-69
2023/07/18 04:53:30;;;;;;;2.88;2.03;;;;;;;;;;4930212;29;20016;-68
2023/07/18 04:55:56;;;;;;;3.58;2.58;;;;;;;;;;4932676;29;20032;-68
2023/07/18 04:58:25;;;;;;;5.07;2.33;;;;;;;;;;4920439;29;20055;-68
2023/07/18 05:00:54;;;;;;;3.78;2.33;;;;;;;;;;4932118;29;20027;-69
2023/07/18 05:03:21;;;;;;;3.08;1.98;;;;;;;;;;4932207;29;20047;-69
2023/07/18 05:05:48;;;;;;;3.40;1.85;;;;;;;;;;4933797;29;20050;-70
2023/07/18 05:08:14;;;;;;;4.20;1.30;;;;;;;;;;4933274;29;20058;-69
2023/07/18 05:10:40;;;;;;;1.90;0.75;;;;;;;;;;4933602;29;20044;-69
2023/07/18 05:13:07;;;;;;;3.80;1.50;;;;;;;;;;4932313;29;20028;-69
2023/07/18 05:15:33;;;;;;;1.27;1.17;;;;;;;;;;4932173;29;20035;-69
2023/07/18 05:17:59;;;;;;;4.95;1.30;;;;;;;;;;4929648;29;20082;-69
2023/07/18 05:20:25;;;;;;;3.20;1.10;;;;;;;;;;4915902;29;20028;-69
2023/07/18 05:22:51;;;;;;;4.30;1.00;;;;;;;;;;4926980;29;20031;-68
2023/07/18 05:25:17;;;;;;;2.03;0.98;;;;;;;;;;4933252;29;20420;-68
2023/07/18 05:27:43;;;;;;;2.92;1.45;;;;;;;;;;4930623;29;20484;-67
2023/07/18 05:30:28;;;;;;;1.67;1.00;;;;;;;;;;4933711;29;20106;-68
2023/07/18 05:32:54;;;;;;;4.15;0.98;;;;;;;;;;4932214;29;20024;-68
2023/07/18 05:35:20;;;;;;;2.53;1.17;;;;;;;;;;4930002;29;20025;-68
2023/07/18 05:37:46;;;;;;;3.25;1.27;;;;;;;;;;4930662;29;20054;-68
2023/07/18 05:40:12;;;;;;;2.13;1.00;;;;;;;;;;4933417;29;20026;-68
2023/07/18 05:42:39;;;;;;;1.67;0.90;;;;;;;;;;4933465;29;20059;-68
2023/07/18 05:45:07;;;;;;;3.88;1.30;;;;;;;;;;4925865;29;20028;-68
2023/07/18 05:47:34;;;;;;;3.25;1.40;;;;;;;;;;4932738;29;20024;-68
2023/07/18 05:50:00;;;;;;;4.00;1.08;;;;;;;;;;4931558;29;20503;-68
2023/07/18 05:52:26;;;;;;;2.72;1.20;;;;;;;;;;4933182;29;20047;-69
2023/07/18 05:54:52;;;;;;;5.03;1.35;;;;;;;;;;4927956;29;20484;-69
2023/07/18 05:57:18;;;;;;;4.57;1.13;;;;;;;;;;4932497;29;20028;-69
2023/07/18 05:59:45;;;;;;;2.20;1.10;;;;;;;;;;4933660;29;20052;-68
2023/07/18 06:02:11;;;;;;;1.27;0.93;;;37.10;23.40;;;;;;4933923;29;20028;-68
2023/07/18 06:04:37;;;;;;;3.28;1.08;;;37.40;23.50;;;;;;4934205;29;20031;-68
2023/07/18 06:07:03;;;;;;;3.40;1.20;;;38.40;22.30;;;;;;4933272;29;20074;-67
2023/07/18 06:09:29;;;;;;;5.63;1.33;;;37.50;22.60;;;;;;4934409;29;20024;-69
2023/07/18 06:11:54;;;;;;;3.30;1.45;;;36.80;23.40;;;;;;4928831;29;20039;-68
2023/07/18 06:14:21;;;;;;;3.67;1.10;;;;;;;;;;4935130;29;20079;-68
2023/07/18 06:16:46;;;;;;;2.50;1.30;;;37.10;23.90;;;;;;4937796;29;20027;-69
2023/07/18 06:19:13;;;;;;;5.85;1.20;;;37.20;22.90;;;;;;4931221;29;20066;-69
2023/07/18 06:21:39;;;;;;;3.35;1.30;;;38.10;22.40;;;;;;4929997;29;20452;-68
2023/07/18 06:24:05;;;;;;;4.68;1.30;;;37.80;22.70;;;;;;4926560;29;20028;-68
2023/07/18 06:26:31;;;;;;;8.55;1.80;;;;;;;;;;4919680;29;20055;-67
2023/07/18 06:28:57;;;;;;;3.67;1.58;;;35.50;25.00;;;;;;4929641;29;20100;-68
2023/07/18 06:31:23;;;;;;;3.83;1.15;;;35.40;25.40;;;;;;4935680;29;20117;-68
2023/07/18 06:33:49;;;;;;;3.83;1.75;;;36.20;23.90;;;;;;4934657;29;20035;-68
2023/07/18 06:36:15;;;;;;;6.18;1.70;;;36.70;23.00;;;;;;4932792;29;20034;-67
2023/07/18 06:38:41;;;;;;;4.35;1.52;;;36.10;24.70;;;;;;4935971;29;20110;-67
2023/07/18 06:41:07;;;;;;;6.40;1.20;;;36.20;24.50;;;;;;4936094;29;20448;-67
2023/07/18 06:43:32;;;;;;;4.45;1.40;;;36.40;24.50;;;;;;4936317;29;20032;-67
2023/07/18 06:45:59;;;;;;;5.22;1.30;;;35.30;25.50;;;;;;4936059;29;20075;-67
2023/07/18 06:48:24;;;;;;;2.40;1.20;;;35.20;25.10;;;;;;4935910;29;20034;-67
2023/07/18 06:50:52;;;;;;;4.28;1.42;;;35.90;24.40;;;;;;4936034;29;20395;-67
2023/07/18 06:53:21;;;;;;;3.45;1.50;;;36.30;23.70;;;;;;4932191;29;20047;-68
2023/07/18 06:55:51;;;;;;;7.22;1.70;;;35.80;23.90;;;;;;4933638;29;20015;-68
2023/07/18 06:58:18;;;;;;;2.42;1.60;;;36.50;24.20;;;;;;4935709;29;20443;-68
2023/07/18 07:00:44;;;;;;;4.88;1.63;;;37.10;23.00;;;;;;4935778;29;20035;-68
2023/07/18 07:03:10;;;;;;;5.75;1.45;;;36.80;23.40;;;;;;4935585;29;20076;-67
2023/07/18 07:05:38;;;;;;;4.30;1.25;;;36.90;23.50;;;;;;4934460;29;20035;-68
2023/07/18 07:08:08;;;;;;;6.57;1.75;;;37.40;22.70;;;;;;4935357;29;20035;-68
2023/07/18 07:10:34;;;;;;;3.92;1.63;;;36.60;23.60;;;;;;4935750;29;20033;-68
2023/07/18 07:13:00;;;;;;;1.65;1.13;;;;;;;;;;4935479;29;20380;-68
2023/07/18 07:15:26;;;;;;;3.20;1.40;;;37.40;23.20;;;;;;4935685;29;20506;-68
2023/07/18 07:17:51;;;;;;;1.67;1.27;;;37.70;22.70;;;;;;4933820;29;20103;-68
2023/07/18 07:20:19;;;;;;;4.43;1.40;;;37.40;22.60;;;;;;4935558;29;20505;-68
2023/07/18 07:22:47;;;;;;;3.65;1.55;;;36.80;23.50;;;;;;4935448;29;20079;-68
2023/07/18 07:25:16;;;;;;;2.88;1.42;;;37.40;23.10;;;;;;4935098;29;20068;-68
2023/07/18 07:27:43;;;;;;;8.38;1.90;;;36.10;24.00;;;;;;4934750;29;20036;-68
2023/07/18 07:30:15;;;;;;;7.50;1.40;;;36.90;22.80;;;;;;4935327;29;20027;-67
2023/07/18 07:32:42;;;;;;;6.28;1.75;;;36.80;23.90;;;;;;4935072;29;20107;-67
2023/07/18 07:35:08;;;;;;;4.53;1.63;;;36.20;24.60;;;;;;4935282;29;20023;-67
2023/07/18 07:37:34;;;;;;;3.25;1.48;;;36.40;24.00;;;;;;4934735;29;20036;-67
2023/07/18 07:39:59;;;;;;;6.53;1.75;;;36.60;23.10;;;;;;4934978;29;20038;-67
2023/07/18 07:42:25;;;;;;;6.40;1.70;;;35.80;25.10;;;;;;4934918;29;20487;-68
2023/07/18 07:44:50;;;;;;;6.80;2.05;;;36.10;25.00;;;;;;4933527;29;20027;-68
2023/07/18 07:47:16;;;;;;;2.40;1.50;;;36.10;23.70;;;;;;4928169;29;20439;-67
2023/07/18 07:49:41;;;;;;;5.90;2.00;;;36.10;24.00;;;;;;4935010;29;20031;-68
2023/07/18 07:52:07;;;;;;;2.40;1.67;;;35.80;24.10;;;;;;4928751;29;20015;-68
2023/07/18 07:54:33;;;;;;;4.05;1.63;;;34.90;25.60;;;;;;4923004;29;20028;-68
2023/07/18 07:56:58;;;;;;;3.85;1.40;;;35.20;24.90;;;;;;4926880;29;20028;-68
2023/07/18 07:59:24;;;;;;;7.07;1.50;;;34.70;25.70;;;;;;4934358;29;20028;-68
2023/07/18 08:01:49;;;;;;;1.60;1.17;;;35.70;24.80;;;;;;4933679;29;20040;-68
2023/07/18 08:04:15;;;;;;;3.15;1.50;;;36.10;24.60;;;;;;4934136;29;20035;-68
2023/07/18 08:06:40;;;;;;;4.85;1.70;;;36.70;23.10;;;;;;4934330;29;20031;-68
2023/07/18 08:09:06;;;;;;;1.10;1.00;;;37.00;23.80;;;;;;4934145;29;20016;-68
2023/07/18 08:11:32;;;;;;;4.25;1.60;;;38.00;22.00;;;;;;4934398;29;20015;-68
2023/07/18 08:13:57;;;;;;;4.38;1.52;;;36.50;23.40;;;;;;4934464;29;20348;-68
2023/07/18 08:16:24;;;;;;;3.55;1.40;;;;;;;;;;4934323;29;20024;-68
2023/07/18 08:18:50;;;;;;;8.02;1.73;;;36.10;23.60;;;;;;4934435;29;20067;-68
2023/07/18 08:21:15;;;;;;;4.20;2.28;;;35.70;24.00;;;;;;4934513;29;20023;-68
2023/07/18 08:23:41;;;;;;;5.55;1.92;;;35.50;23.80;;;;;;4934241;29;20399;-68
2023/07/18 08:26:07;;;;;;;3.30;1.73;;;35.20;24.80;;;;;;4933214;29;20023;-68
2023/07/18 08:28:33;;;;;;;7.18;1.52;;;36.00;24.40;;;;;;4933978;29;20032;-68
2023/07/18 08:31:03;;;;;;;4.03;1.77;;;36.80;23.10;;;;;;4934073;29;20558;-68
2023/07/18 08:33:28;;;;;;;6.10;2.13;;;36.80;22.80;;;;;;4934030;29;20027;-68
2023/07/18 08:35:54;;;;;;;4.55;1.80;;;36.90;23.70;;;;;;4934155;29;20035;-68
2023/07/18 08:38:20;;;;;;;3.42;2.00;;;35.80;23.70;;;;;;4933151;29;20019;-68
2023/07/18 08:40:46;;;;;;;4.32;1.70;;;36.90;23.30;;;;;;4934015;29;20459;-68
2023/07/18 08:43:14;;;;;;;3.17;1.80;;;36.40;23.60;;;;;;4933946;29;20020;-68
2023/07/18 08:45:41;;;;;;;5.15;1.40;;;36.50;24.50;;;;;;4932935;29;20054;-68
2023/07/18 08:48:07;;;;;;;2.08;1.48;;;37.40;23.10;;;;;;4933941;29;20027;-68
2023/07/18 08:50:33;;;;;;;3.97;1.48;;;37.40;21.60;;;;;;4933848;29;20027;-68
2023/07/18 08:52:59;;;;;;;2.80;1.70;;;36.60;22.60;;;;;;4933830;29;20159;-68
2023/07/18 08:55:29;;;;;;;3.00;1.38;;;35.40;23.90;;;;;;4926835;29;20052;-68
2023/07/18 08:57:55;;;;;;;4.07;2.38;;;35.70;23.50;;;;;;4931941;29;20090;-68
2023/07/18 09:00:20;;;;;;;7.03;1.70;;;36.00;23.80;;;;;;4934092;29;20024;-68
2023/07/18 09:02:50;;;;;;;4.03;1.60;;;35.80;22.50;;;;;;4933952;29;20043;-68
2023/07/18 09:05:32;;;;;;;5.22;1.40;;;35.90;24.00;;;;;;4934010;29;20024;-67
2023/07/18 09:07:59;;;;;;;4.22;1.30;;;36.00;23.30;;;;;;4933530;29;20035;-68
2023/07/18 09:10:25;;;;;;;4.00;1.50;;;35.70;23.60;;;;;;4933719;29;20039;-68
2023/07/18 09:12:52;;;;;;;3.90;1.70;;;35.50;22.90;;;;;;4934008;29;20042;-68
2023/07/18 09:15:19;;;;;;;2.28;1.40;;;35.80;22.70;;;;;;4933878;29;20078;-68
2023/07/18 09:18:06;;;;;;;4.47;1.80;;;36.00;23.20;;;;;;4933668;29;20111;-68
2023/07/18 09:20:32;;;;;;;4.50;1.60;;;36.30;21.80;;;;;;4933946;29;20155;-68
2023/07/18 09:23:03;;;;;;;1.88;1.42;;;36.20;21.80;;;;;;4933488;29;20031;-68
2023/07/18 09:25:29;;;;;;;3.38;1.80;;;35.90;21.90;;;;;;4933948;29;20495;-68
2023/07/18 09:27:55;;;;;;;3.33;1.50;;;34.70;23.00;;;;;;4933649;29;20039;-68
2023/07/18 09:30:34;;;;;;;3.25;1.27;;;34.30;25.30;;;;;;4933651;29;20028;-68
2023/07/18 09:33:03;;;;;;;5.28;1.73;;;;;;;;;;4933517;29;20510;-68
2023/07/18 09:35:29;;;;;;;5.53;1.65;;;34.50;24.00;;;;;;4933601;29;20166;-68
2023/07/18 09:37:55;;;;;;;2.10;1.52;;;33.90;24.60;;;;;;4927542;29;20123;-67
2023/07/18 09:40:22;;;;;;;2.42;1.65;;;33.70;25.30;;;;;;4928127;29;20027;-68
2023/07/18 09:42:49;;;;;;;2.38;1.95;;;34.10;23.80;;;;;;4925635;29;20028;-68
2023/07/18 09:45:16;;;;;;;2.40;1.60;;;33.40;24.20;;;;;;4926304;29;20515;-68
2023/07/18 09:47:43;;;;;;;3.83;1.77;;;32.70;26.60;;;;;;4912391;29;20159;-68
2023/07/18 09:50:10;;;;;;;7.85;2.00;;;32.90;25.30;;;;;;4930371;29;20019;-68
2023/07/18 09:52:40;;;;;;;3.35;1.80;;;33.10;26.90;;;;;;4937306;29;20134;-68
2023/07/18 09:55:07;;;;;;;4.00;1.48;;;33.20;26.30;;;;;;4928136;29;20492;-68
2023/07/18 09:57:36;;;;;;;2.88;1.88;;;33.50;24.80;;;;;;4936912;29;20115;-67
2023/07/18 10:00:06;;;;;;;2.28;1.88;;;33.40;25.60;;;;;;4937103;29;20024;-68
2023/07/18 10:02:35;;;;;;;4.68;1.60;;;32.50;26.10;;;;;;4936810;29;20031;-68
2023/07/18 10:05:03;;;;;;;3.17;1.88;;;32.90;27.20;;;;;;4937281;29;21753;-68
2023/07/18 10:07:32;;;;;;;3.10;1.52;;;;;;;;;;4935824;29;20030;-68
2023/07/18 10:09:59;;;;;;;4.78;1.67;;;32.20;28.30;;;;;;4937041;29;20404;-68
2023/07/18 10:12:25;;;;;;;5.10;1.92;;;32.00;27.20;;;;;;4936795;29;20091;-68
2023/07/18 10:14:59;;;;;;;4.07;1.85;;;32.00;28.20;;;;;;4936603;29;20031;-68
2023/07/18 10:17:32;;;;;;;3.83;1.63;;;32.00;29.00;;;;;;4936940;29;20020;-68
2023/07/18 10:19:57;;;;;;;2.65;1.98;;;32.40;28.10;;;;;;4928397;29;20516;-68
2023/07/18 10:22:30;;;;;;;4.35;1.75;;;32.40;27.20;;;;;;4936705;29;20024;-68
2023/07/18 10:25:18;;;;;;;5.93;2.22;;;32.20;26.20;;;;;;4936685;29;20034;-68
2023/07/18 10:27:45;;;;;;;4.03;1.70;;;31.90;27.30;;;;;;4935365;29;20101;-68
2023/07/18 10:30:12;;;;;;;8.35;1.95;;;31.70;28.30;;;;;;4928921;29;20504;-68
2023/07/18 10:32:39;;;;;;;5.90;2.10;;;;;;;;;;4935460;29;20050;-68
2023/07/18 10:35:09;;;;;;;4.65;1.90;;;;;;;;;;4935584;29;20032;-68
2023/07/18 10:37:36;;;;;;;2.85;2.20;;;;;;;;;;4935634;29;20399;-68
2023/07/18 10:40:04;;;;;;;2.78;1.70;;;;;;;;;;4935623;29;20028;-68
2023/07/18 10:42:32;;;;;;;3.92;1.90;;;;;;;;;;4935815;29;20439;-68
2023/07/18 10:44:59;;;;;;;3.15;2.10;;;;;;;;;;4935704;29;20035;-68
2023/07/18 10:47:27;;;;;;;4.90;1.90;;;;;;;;;;4935469;29;20508;-69
2023/07/18 10:49:53;;;;;;;6.30;2.13;;;;;;;;;;4935945;29;20476;-67
2023/07/18 10:52:20;;;;;;;5.25;1.88;;;;;;;;;;4935939;29;20046;-67
2023/07/18 10:54:46;;;;;;;3.03;1.80;;;;;;;;;;4930837;29;20032;-68
2023/07/18 10:57:15;;;;;;;5.43;1.90;;;;;;;;;;4934356;29;20035;-67
2023/07/18 10:59:44;;;;;;;3.58;2.15;;;;;;;;;;4936103;29;20174;-67
2023/07/18 11:02:11;;;;;;;8.25;1.70;;;;;;;;;;4935127;29;20024;-68
2023/07/18 11:04:37;;;;;;;5.07;1.70;;;;;;;;;;4927238;29;20055;-68
2023/07/18 11:07:03;;;;;;;5.53;1.73;;;;;;;;;;4934054;29;20038;-68
2023/07/18 11:09:29;;;;;;;3.25;1.42;;;;;;;;;;4935762;29;20451;-68
2023/07/18 11:11:55;;;;;;;6.13;1.83;;;;;;;;;;4935638;29;20071;-68
2023/07/18 11:14:21;;;;;;;4.45;1.85;;;;;;;;;;4936105;29;20071;-67
2023/07/18 11:16:48;;;;;;;4.20;1.85;;;;;;;;;;4935196;29;20032;-67
2023/07/18 11:19:15;;;;;;;3.45;1.50;;;;;;;;;;4935520;29;20058;-67
2023/07/18 11:21:42;;;;;;;5.43;1.90;;;;;;;;;;4935092;29;20023;-67
2023/07/18 11:24:08;;;;;;;9.63;1.83;;;;;;;;;;4935236;29;20055;-68
2023/07/18 11:26:35;;;;;;;4.00;2.03;;;;;;;;;;4935253;29;20086;-68
2023/07/18 11:29:01;;;;;;;3.28;1.65;;;;;;;;;;4935282;29;20102;-68
2023/07/18 11:31:31;;;;;;;4.88;2.03;;;;;;;;;;4935390;29;20417;-68
2023/07/18 11:33:58;;;;;;;3.05;1.73;;;;;;;;;;4935098;29;20028;-68
2023/07/18 11:36:29;;;;;;;7.50;2.55;;;;;;;;;;4935079;29;20087;-68
2023/07/18 11:38:58;;;;;;;3.97;1.83;;;;;;;;;;4933350;29;20020;-68
2023/07/18 11:41:39;;;;;;;3.50;2.25;;;;;;;;;;4921444;29;20147;-68
2023/07/18 11:44:06;;;;;;;1.98;1.55;;;;;;;;;;4916138;29;20103;-67
2023/07/18 11:46:36;;;;;;;5.70;1.77;;;;;;;;;;4923128;29;20336;-67
2023/07/18 11:49:02;;;;;;;12.15;2.58;;;;;;;;;;4914770;29;20087;-67
2023/07/18 11:51:29;;;;;;;7.65;2.15;;;;;;;;;;4914697;29;20394;-68
2023/07/18 11:53:55;;;;;;;6.30;2.20;;;;;;;;;;4914300;29;20031;-67
2023/07/18 11:56:21;;;;;;;2.60;1.70;;;;;;;;;;4914088;29;20113;-67
2023/07/18 11:58:47;;;;;;;5.03;1.75;;;;;;;;;;4914175;29;20408;-68
2023/07/18 12:01:13;;;;;;;4.25;2.15;;;;;;;;;;4912564;29;20039;-68
2023/07/18 12:03:40;;;;;;;3.78;1.73;;;;;;;;;;4914304;29;20034;-68
2023/07/18 12:06:06;;;;;;;3.70;2.08;;;;;;;;;;4914463;29;20055;-68
2023/07/18 12:08:32;;;;;;;3.72;1.67;;;;;;;;;;4914858;29;20028;-68
2023/07/18 12:10:58;;;;;;;4.10;2.00;;;;;;;;;;4915654;29;20119;-68
2023/07/18 12:13:25;;;;;;;5.88;1.92;;;;;;;;;;4915419;29;20059;-68
2023/07/18 12:15:53;;;;;;;5.00;2.10;;;;;;;;;;4915146;29;20028;-68
2023/07/18 12:18:20;;;;;;;6.47;2.00;;;;;;;;;;4914057;29;20028;-68
2023/07/18 12:20:46;;;;;;;5.32;1.80;;;;;;;;;;4915780;29;20036;-68
2023/07/18 12:23:12;;;;;;;2.60;1.92;;;;;;;;;;4915465;29;20441;-68
2023/07/18 12:25:38;;;;;;;8.77;1.88;;;;;;;;;;4915379;29;20028;-68
2023/07/18 12:28:06;;;;;;;3.17;1.63;;;;;;;;;;4914938;29;20025;-69
2023/07/18 12:30:33;;;;;;;4.40;1.80;;;;;;;;;;4913982;29;20024;-68
2023/07/18 12:33:00;;;;;;;3.53;2.22;;;;;;;;;;4915318;29;20028;-68
2023/07/18 12:35:26;;;;;;;5.30;2.60;;;;;;;;;;4915379;29;20039;-68
2023/07/18 12:37:54;;;;;;;7.88;2.40;;;;;;;;;;4915067;29;20103;-69
2023/07/18 12:40:20;;;;;;;2.83;1.42;;;;;;;;;;4915436;29;20032;-68
2023/07/18 12:42:50;;;;;;;2.40;1.60;;;;;;;;;;4915350;29;20032;-68
2023/07/18 12:45:16;;;;;;;2.30;1.80;;;;;;;;;;4915277;29;20024;-68
2023/07/18 12:47:43;;;;;;;4.22;2.15;;;;;;;;;;4913750;29;20039;-68
2023/07/18 12:50:10;;;;;;;3.58;1.83;;;;;;;;;;4915287;29;20047;-68
2023/07/18 12:52:36;;;;;;;3.25;1.98;;;;;;;;;;4915003;29;20024;-67
2023/07/18 12:55:02;;;;;;;3.92;1.67;;;;;;;;;;4915149;29;20091;-69
2023/07/18 12:57:29;;;;;;;5.43;2.13;;;;;;;;;;4914708;29;20059;-68
2023/07/18 12:59:55;;;;;;;1.98;1.77;;;;;;;;;;4914810;29;20028;-67
2023/07/18 13:02:21;;;;;;;3.38;2.00;;;;;;;;;;4915049;29;20169;-68
2023/07/18 13:04:47;;;;;;;2.22;1.63;;;;;;;;;;4915107;29;20490;-68
2023/07/18 13:07:13;;;;;;;5.53;2.17;;;;;;;;;;4914558;29;20020;-68
2023/07/18 13:09:39;;;;;;;5.07;2.13;;;;;;;;;;4913757;29;20029;-68
2023/07/18 13:12:08;;;;;;;3.45;2.33;;;;;;;;;;4914846;29;20028;-68
2023/07/18 13:14:35;;;;;;;5.18;2.47;;;;;;;;;;4914920;29;20090;-68
2023/07/18 13:17:01;;;;;;;8.23;1.92;;;;;;;;;;4914842;29;20028;-67
2023/07/18 13:19:27;;;;;;;2.55;1.60;;;;;;;;;;4915111;29;20021;-67
2023/07/18 13:21:54;;;;;;;4.57;1.80;;;;;;;;;;4913673;29;20400;-68
2023/07/18 13:24:21;;;;;;;4.97;2.10;;;;;;;;;;4916664;29;20031;-68
2023/07/18 13:26:47;;;;;;;6.13;2.47;;;;;;;;;;4918342;29;20028;-67
2023/07/18 13:29:13;;;;;;;4.55;2.30;;;;;;;;;;4918290;29;20396;-68
2023/07/18 13:31:39;;;;;;;2.22;1.65;;;;;;;;;;4918558;29;20031;-67
2023/07/18 13:34:06;;;;;;;4.38;1.73;;;;;;;;;;4918474;29;20040;-68
2023/07/18 13:36:32;;;;;;;5.53;1.70;;;;;;;;;;4918486;29;20032;-68
2023/07/18 13:38:59;;;;;;;3.92;1.90;;;;;;;;;;4917287;29;20488;-68
2023/07/18 13:41:25;;;;;;;4.00;1.90;;;;;;;;;;4918597;29;20039;-68
2023/07/18 13:43:51;;;;;;;3.03;1.63;;;;;;;;;;4918541;29;20032;-68
2023/07/18 13:46:17;;;;;;;2.55;1.70;;;;;;;;;;4918799;29;20028;-68
2023/07/18 13:48:43;;;;;;;3.45;1.73;;;;;;;;;;4918445;29;20024;-69
2023/07/18 13:51:09;;;;;;;4.03;1.92;;;;;;;;;;4918467;29;20460;-68
2023/07/18 13:53:35;;;;;;;1.98;1.50;;;;;;;;;;4918239;29;20051;-68
2023/07/18 13:56:01;;;;;;;2.65;1.80;;;;;;;;;;4912837;29;20060;-68
2023/07/18 13:58:27;;;;;;;5.30;1.67;;;;;;;;;;4901055;29;20040;-69
2023/07/18 14:00:53;;;;;;;3.00;1.75;;;;;;;;;;4918300;29;20024;-68